createdAt,value
2017-12-22T00:00:00.066Z,101833.70
2017-12-22T00:01:05.846Z,101837.63
2017-12-22T00:02:11.614Z,101835.06
2017-12-22T00:03:18.905Z,101837.26
2017-12-22T00:04:25.488Z,101840.81
2017-12-22T00:05:31.258Z,101841.19
2017-12-22T00:06:37.016Z,101838.62
2017-12-22T00:07:42.762Z,101841.67
2017-12-22T00:08:48.550Z,101841.26
2017-12-22T00:09:55.114Z,101845.61
2017-12-22T00:11:00.868Z,101836.47
2017-12-22T00:12:06.625Z,101836.45
2017-12-22T00:13:12.360Z,101839.92
2017-12-22T00:14:18.193Z,101842.91
2017-12-22T00:15:23.607Z,101842.89
2017-12-22T00:16:30.101Z,101846.32
2017-12-22T00:17:35.833Z,101839.34
2017-12-22T00:18:41.584Z,101838.03
2017-12-22T00:19:47.367Z,101842.81
2017-12-22T00:20:53.127Z,101842.81
2017-12-22T00:21:59.620Z,101839.34
2017-12-22T00:23:05.375Z,101844.06
2017-12-22T00:24:11.128Z,101842.73
2017-12-22T00:25:16.917Z,101846.22
2017-12-22T00:26:22.649Z,101849.28
2017-12-22T00:27:29.153Z,101850.13
2017-12-22T00:28:34.212Z,101854.07
2017-12-22T00:29:39.945Z,101850.14
2017-12-22T00:30:45.740Z,101856.27
2017-12-22T00:31:51.587Z,101853.71
2017-12-22T00:32:57.347Z,101856.34
2017-12-22T00:34:03.100Z,101850.23
2017-12-22T00:35:08.851Z,101852.42
2017-12-22T00:36:14.334Z,101847.28
2017-12-22T00:37:20.093Z,101846.03
2017-12-22T00:38:25.849Z,101847.34
2017-12-22T00:39:31.281Z,101844.73
2017-12-22T00:40:36.588Z,101843.45
2017-12-22T00:41:42.388Z,101846.11
2017-12-22T00:42:48.141Z,101846.55
2017-12-22T00:43:54.645Z,101848.72
2017-12-22T00:45:00.384Z,101846.98
2017-12-22T00:46:06.139Z,101847.44
2017-12-22T00:47:11.947Z,101845.75
2017-12-22T00:48:17.699Z,101846.63
2017-12-22T00:49:23.464Z,101847.88
2017-12-22T00:50:29.214Z,101851.35
2017-12-22T00:51:34.998Z,101857.00
2017-12-22T00:52:41.536Z,101853.95
2017-12-22T00:53:48.776Z,101847.42
2017-12-22T00:54:54.521Z,101850.47
2017-12-22T00:56:00.268Z,101853.47
2017-12-22T00:57:06.036Z,101852.59
2017-12-22T00:58:11.606Z,101853.02
2017-12-22T00:59:17.353Z,101849.53
2017-12-22T01:00:23.124Z,101848.24
2017-12-22T01:01:28.887Z,101853.08
2017-12-22T01:02:34.631Z,101848.73
2017-12-22T01:03:41.177Z,101849.61
2017-12-22T01:04:46.940Z,101851.78
2017-12-22T01:05:53.673Z,101852.66
2017-12-22T01:06:59.489Z,101854.47
2017-12-22T01:08:05.250Z,101848.81
2017-12-22T01:09:11.659Z,101850.11
2017-12-22T01:10:18.213Z,101845.77
2017-12-22T01:11:23.975Z,101850.53
2017-12-22T01:12:29.844Z,101852.30
2017-12-22T01:13:35.604Z,101854.90
2017-12-22T01:14:41.396Z,101856.64
2017-12-22T01:15:52.499Z,101853.59
2017-12-22T01:17:03.584Z,101855.34
2017-12-22T01:18:14.761Z,101854.45
2017-12-22T01:19:20.703Z,101846.25
2017-12-22T01:20:26.475Z,101841.47
2017-12-22T01:21:32.987Z,101840.16
2017-12-22T01:22:38.746Z,101838.85
2017-12-22T01:23:44.512Z,101839.67
2017-12-22T01:24:49.944Z,101837.06
2017-12-22T01:25:57.250Z,101834.39
2017-12-22T01:27:02.989Z,101840.05
2017-12-22T01:28:08.747Z,101840.89
2017-12-22T01:29:14.495Z,101842.65
2017-12-22T01:30:20.241Z,101846.13
2017-12-22T01:31:26.013Z,101852.23
2017-12-22T01:32:31.780Z,101846.12
2017-12-22T01:33:38.285Z,101842.20
2017-12-22T01:34:44.035Z,101849.59
2017-12-22T01:35:49.793Z,101851.77
2017-12-22T01:36:55.371Z,101853.08
2017-12-22T01:38:01.911Z,101853.97
2017-12-22T01:39:07.675Z,101854.84
2017-12-22T01:40:13.424Z,101853.09
2017-12-22T01:41:19.071Z,101851.35
2017-12-22T01:42:24.842Z,101855.28
2017-12-22T01:43:30.582Z,101851.80
2017-12-22T01:44:36.321Z,101853.98
2017-12-22T01:45:42.344Z,101856.16
2017-12-22T01:46:49.398Z,101850.94
2017-12-22T01:47:55.182Z,101856.56
2017-12-22T01:49:00.932Z,101857.47
2017-12-22T01:50:05.794Z,101857.89
2017-12-22T01:51:12.302Z,101855.70
2017-12-22T01:52:18.070Z,101857.00
2017-12-22T01:53:24.096Z,101850.89
2017-12-22T01:54:29.855Z,101850.92
2017-12-22T01:55:35.596Z,101850.94
2017-12-22T01:56:41.608Z,101850.07
2017-12-22T01:57:47.467Z,101847.89
2017-12-22T01:58:53.238Z,101852.28
2017-12-22T01:59:58.977Z,101846.19
2017-12-22T02:01:04.517Z,101841.85
2017-12-22T02:02:10.279Z,101838.78
2017-12-22T02:03:16.805Z,101839.66
2017-12-22T02:04:23.024Z,101841.02
2017-12-22T02:05:28.802Z,101842.33
2017-12-22T02:06:35.327Z,101832.77
2017-12-22T02:07:41.072Z,101833.20
2017-12-22T02:08:46.814Z,101831.08
2017-12-22T02:09:52.599Z,101829.36
2017-12-22T02:10:58.561Z,101829.42
2017-12-22T02:12:04.877Z,101836.30
2017-12-22T02:13:10.610Z,101830.64
2017-12-22T02:14:16.374Z,101829.36
2017-12-22T02:15:22.147Z,101828.91
2017-12-22T02:16:28.662Z,101825.87
2017-12-22T02:17:34.418Z,101823.70
2017-12-22T02:18:40.149Z,101821.95
2017-12-22T02:19:45.703Z,101820.14
2017-12-22T02:20:51.484Z,101819.72
2017-12-22T02:21:57.242Z,101820.63
2017-12-22T02:23:03.069Z,101818.89
2017-12-22T02:24:08.818Z,101826.23
2017-12-22T02:25:14.575Z,101814.03
2017-12-22T02:26:20.332Z,101818.83
2017-12-22T02:27:26.098Z,101816.22
2017-12-22T02:28:31.852Z,101815.84
2017-12-22T02:29:38.351Z,101816.72
2017-12-22T02:30:44.090Z,101821.07
2017-12-22T02:31:49.861Z,101815.84
2017-12-22T02:32:55.622Z,101815.80
2017-12-22T02:34:01.718Z,101805.00
2017-12-22T02:35:07.469Z,101809.41
2017-12-22T02:36:13.206Z,101802.90
2017-12-22T02:37:19.027Z,101809.85
2017-12-22T02:38:24.781Z,101815.06
2017-12-22T02:39:30.517Z,101810.27
2017-12-22T02:40:36.285Z,101811.52
2017-12-22T02:41:42.020Z,101811.96
2017-12-22T02:42:47.843Z,101806.73
2017-12-22T02:43:53.610Z,101807.14
2017-12-22T02:44:59.374Z,101808.88
2017-12-22T02:46:05.105Z,101801.00
2017-12-22T02:47:10.860Z,101804.95
2017-12-22T02:48:16.613Z,101802.73
2017-12-22T02:49:23.130Z,101803.58
2017-12-22T02:50:29.985Z,101803.08
2017-12-22T02:51:35.746Z,101802.23
2017-12-22T02:52:41.504Z,101796.08
2017-12-22T02:53:47.280Z,101800.84
2017-12-22T02:54:53.791Z,101793.89
2017-12-22T02:55:59.548Z,101792.56
2017-12-22T02:57:05.304Z,101793.00
2017-12-22T02:58:11.025Z,101789.93
2017-12-22T02:59:17.417Z,101785.59
2017-12-22T03:00:23.944Z,101782.99
2017-12-22T03:01:29.703Z,101781.30
2017-12-22T03:02:36.230Z,101779.95
2017-12-22T03:03:41.953Z,101776.88
2017-12-22T03:04:47.728Z,101768.18
2017-12-22T03:05:53.473Z,101772.98
2017-12-22T03:06:59.227Z,101771.69
2017-12-22T03:08:04.968Z,101766.02
2017-12-22T03:09:10.733Z,101763.84
2017-12-22T03:10:17.259Z,101762.55
2017-12-22T03:11:23.001Z,101766.08
2017-12-22T03:12:28.739Z,101760.91
2017-12-22T03:13:35.288Z,101761.34
2017-12-22T03:14:41.044Z,101760.08
2017-12-22T03:15:46.813Z,101757.45
2017-12-22T03:16:53.316Z,101753.53
2017-12-22T03:17:59.058Z,101750.05
2017-12-22T03:19:04.800Z,101751.87
2017-12-22T03:20:10.540Z,101751.86
2017-12-22T03:21:16.294Z,101750.13
2017-12-22T03:22:22.034Z,101750.50
2017-12-22T03:23:27.796Z,101752.66
2017-12-22T03:24:33.813Z,101755.20
2017-12-22T03:25:39.564Z,101755.64
2017-12-22T03:26:45.316Z,101751.67
2017-12-22T03:27:51.069Z,101752.53
2017-12-22T03:28:56.836Z,101750.84
2017-12-22T03:30:03.431Z,101748.66
2017-12-22T03:31:09.393Z,101754.33
2017-12-22T03:32:15.166Z,101754.83
2017-12-22T03:33:20.899Z,101753.53
2017-12-22T03:34:26.665Z,101762.67
2017-12-22T03:35:33.195Z,101766.50
2017-12-22T03:36:38.948Z,101768.27
2017-12-22T03:37:44.738Z,101766.46
2017-12-22T03:38:50.487Z,101765.20
2017-12-22T03:39:56.244Z,101764.33
2017-12-22T03:41:01.973Z,101760.84
2017-12-22T03:42:07.776Z,101753.47
2017-12-22T03:43:14.309Z,101753.08
2017-12-22T03:44:20.061Z,101747.36
2017-12-22T03:45:27.374Z,101745.63
2017-12-22T03:46:33.110Z,101742.20
2017-12-22T03:47:38.855Z,101748.76
2017-12-22T03:48:44.637Z,101750.55
2017-12-22T03:49:50.384Z,101750.12
2017-12-22T03:50:56.112Z,101749.54
2017-12-22T03:52:01.857Z,101743.89
2017-12-22T03:53:07.606Z,101744.75
2017-12-22T03:54:13.360Z,101748.24
2017-12-22T03:55:20.606Z,101749.54
2017-12-22T03:56:26.367Z,101744.75
2017-12-22T03:57:32.115Z,101747.75
2017-12-22T03:58:37.844Z,101745.97
2017-12-22T03:59:43.596Z,101746.83
2017-12-22T04:00:49.337Z,101750.77
2017-12-22T04:01:55.098Z,101755.55
2017-12-22T04:03:00.848Z,101752.08
2017-12-22T04:04:07.368Z,101750.33
2017-12-22T04:05:13.164Z,101750.36
2017-12-22T04:06:18.916Z,101752.08
2017-12-22T04:07:24.649Z,101752.97
2017-12-22T04:08:30.399Z,101754.27
2017-12-22T04:09:36.150Z,101753.88
2017-12-22T04:10:41.927Z,101752.08
2017-12-22T04:11:47.670Z,101752.97
2017-12-22T04:12:53.430Z,101757.38
2017-12-22T04:13:59.175Z,101759.55
2017-12-22T04:15:05.709Z,101757.42
2017-12-22T04:16:11.502Z,101760.84
2017-12-22T04:17:17.245Z,101769.55
2017-12-22T04:18:22.981Z,101757.39
2017-12-22T04:19:28.718Z,101753.94
2017-12-22T04:20:34.502Z,101760.04
2017-12-22T04:21:40.307Z,101756.14
2017-12-22T04:22:46.064Z,101756.95
2017-12-22T04:23:52.026Z,101757.42
2017-12-22T04:24:57.819Z,101756.55
2017-12-22T04:26:04.270Z,101761.39
2017-12-22T04:27:10.213Z,101755.73
2017-12-22T04:28:15.962Z,101761.00
2017-12-22T04:29:22.485Z,101761.87
2017-12-22T04:30:28.243Z,101763.61
2017-12-22T04:31:33.972Z,101767.54
2017-12-22T04:32:39.754Z,101770.60
2017-12-22T04:33:46.272Z,101773.21
2017-12-22T04:34:52.008Z,101776.27
2017-12-22T04:35:57.773Z,101779.29
2017-12-22T04:37:03.509Z,101777.06
2017-12-22T04:38:09.359Z,101778.80
2017-12-22T04:39:15.126Z,101777.54
2017-12-22T04:40:21.653Z,101778.80
2017-12-22T04:41:27.407Z,101778.33
2017-12-22T04:42:34.250Z,101785.30
2017-12-22T04:43:40.050Z,101778.77
2017-12-22T04:44:45.804Z,101781.76
2017-12-22T04:45:51.548Z,101778.70
2017-12-22T04:46:57.295Z,101777.39
2017-12-22T04:48:03.099Z,101780.01
2017-12-22T04:49:09.081Z,101776.10
2017-12-22T04:50:14.831Z,101772.67
2017-12-22T04:51:20.558Z,101774.79
2017-12-22T04:52:26.285Z,101777.39
2017-12-22T04:53:32.038Z,101777.41
2017-12-22T04:54:37.811Z,101781.33
2017-12-22T04:55:43.573Z,101782.98
2017-12-22T04:56:49.303Z,101781.18
2017-12-22T04:57:55.032Z,101781.14
2017-12-22T04:59:00.783Z,101784.98
2017-12-22T05:00:06.539Z,101785.87
2017-12-22T05:01:12.283Z,101786.72
2017-12-22T05:02:18.031Z,101789.70
2017-12-22T05:03:24.524Z,101779.24
2017-12-22T05:04:30.271Z,101784.91
2017-12-22T05:05:36.045Z,101785.75
2017-12-22T05:06:41.798Z,101791.79
2017-12-22T05:07:47.544Z,101786.13
2017-12-22T05:08:53.296Z,101790.47
2017-12-22T05:09:59.806Z,101794.38
2017-12-22T05:11:05.573Z,101793.87
2017-12-22T05:12:11.304Z,101793.37
2017-12-22T05:13:17.046Z,101803.42
2017-12-22T05:14:22.829Z,101802.08
2017-12-22T05:15:28.756Z,101805.98
2017-12-22T05:16:34.528Z,101805.09
2017-12-22T05:17:40.777Z,101803.77
2017-12-22T05:18:46.517Z,101806.32
2017-12-22T05:19:53.017Z,101799.76
2017-12-22T05:20:58.805Z,101794.92
2017-12-22T05:22:05.356Z,101796.23
2017-12-22T05:23:11.119Z,101797.59
2017-12-22T05:24:17.624Z,101792.36
2017-12-22T05:25:23.383Z,101788.86
2017-12-22T05:26:29.156Z,101792.81
2017-12-22T05:27:35.805Z,101784.11
2017-12-22T05:28:41.556Z,101786.80
2017-12-22T05:29:48.046Z,101786.81
2017-12-22T05:30:53.784Z,101787.25
2017-12-22T05:31:59.543Z,101782.91
2017-12-22T05:33:05.308Z,101782.56
2017-12-22T05:34:11.103Z,101782.13
2017-12-22T05:35:16.838Z,101785.17
2017-12-22T05:36:22.560Z,101788.64
2017-12-22T05:37:29.093Z,101775.15
2017-12-22T05:38:34.862Z,101778.28
2017-12-22T05:39:41.591Z,101781.75
2017-12-22T05:40:47.340Z,101777.41
2017-12-22T05:41:53.099Z,101776.13
2017-12-22T05:42:58.822Z,101781.34
2017-12-22T05:44:04.586Z,101776.10
2017-12-22T05:45:10.337Z,101781.78
2017-12-22T05:46:16.853Z,101777.41
2017-12-22T05:47:22.604Z,101776.98
2017-12-22T05:48:28.344Z,101777.42
2017-12-22T05:49:34.109Z,101775.30
2017-12-22T05:50:39.873Z,101774.47
2017-12-22T05:51:45.627Z,101777.93
2017-12-22T05:52:51.562Z,101775.34
2017-12-22T05:53:57.288Z,101774.45
2017-12-22T05:55:03.831Z,101777.48
2017-12-22T05:56:09.644Z,101774.89
2017-12-22T05:57:15.410Z,101771.91
2017-12-22T05:58:21.264Z,101776.20
2017-12-22T05:59:27.925Z,101773.17
2017-12-22T06:00:33.754Z,101773.66
2017-12-22T06:01:39.772Z,101774.09
2017-12-22T06:02:45.534Z,101779.32
2017-12-22T06:03:51.320Z,101779.74
2017-12-22T06:04:57.810Z,101772.80
2017-12-22T06:06:03.612Z,101774.11
2017-12-22T06:07:10.120Z,101771.92
2017-12-22T06:08:15.869Z,101772.79
2017-12-22T06:09:21.628Z,101767.15
2017-12-22T06:10:27.356Z,101772.37
2017-12-22T06:11:33.127Z,101774.12
2017-12-22T06:12:39.644Z,101767.65
2017-12-22T06:13:45.380Z,101773.33
2017-12-22T06:14:51.131Z,101774.20
2017-12-22T06:15:56.873Z,101772.95
2017-12-22T06:17:02.661Z,101769.86
2017-12-22T06:18:08.895Z,101774.62
2017-12-22T06:19:14.656Z,101773.31
2017-12-22T06:20:21.172Z,101772.03
2017-12-22T06:21:27.174Z,101773.34
2017-12-22T06:22:32.934Z,101775.06
2017-12-22T06:23:38.674Z,101776.39
2017-12-22T06:24:44.413Z,101777.25
2017-12-22T06:25:50.169Z,101782.05
2017-12-22T06:26:55.972Z,101779.00
2017-12-22T06:28:02.519Z,101781.61
2017-12-22T06:29:08.268Z,101784.22
2017-12-22T06:30:14.792Z,101780.81
2017-12-22T06:31:20.545Z,101786.46
2017-12-22T06:32:26.288Z,101783.44
2017-12-22T06:33:32.063Z,101788.64
2017-12-22T06:34:38.600Z,101790.83
2017-12-22T06:35:45.120Z,101793.00
2017-12-22T06:36:50.891Z,101793.80
2017-12-22T06:37:56.645Z,101786.39
2017-12-22T06:39:03.007Z,101783.77
2017-12-22T06:40:09.528Z,101783.33
2017-12-22T06:41:15.305Z,101789.79
2017-12-22T06:42:21.277Z,101794.99
2017-12-22T06:43:27.044Z,101792.74
2017-12-22T06:44:32.823Z,101790.16
2017-12-22T06:45:38.559Z,101790.58
2017-12-22T06:46:44.596Z,101787.52
2017-12-22T06:47:50.316Z,101790.16
2017-12-22T06:48:56.096Z,101792.33
2017-12-22T06:50:01.931Z,101789.75
2017-12-22T06:51:07.657Z,101792.73
2017-12-22T06:52:13.418Z,101793.11
2017-12-22T06:53:19.165Z,101793.52
2017-12-22T06:54:24.925Z,101790.46
2017-12-22T06:55:31.486Z,101795.19
2017-12-22T06:56:38.009Z,101798.68
2017-12-22T06:57:43.733Z,101796.11
2017-12-22T06:58:49.504Z,101797.77
2017-12-22T06:59:56.001Z,101796.03
2017-12-22T07:01:01.775Z,101797.72
2017-12-22T07:02:09.061Z,101798.12
2017-12-22T07:03:14.805Z,101795.87
2017-12-22T07:04:20.559Z,101799.27
2017-12-22T07:05:26.308Z,101794.89
2017-12-22T07:06:32.087Z,101799.16
2017-12-22T07:07:37.893Z,101795.67
2017-12-22T07:08:43.676Z,101791.66
2017-12-22T07:09:49.431Z,101803.83
2017-12-22T07:10:55.176Z,101792.42
2017-12-22T07:12:00.935Z,101793.70
2017-12-22T07:13:06.495Z,101793.28
2017-12-22T07:14:12.262Z,101792.00
2017-12-22T07:15:18.752Z,101801.14
2017-12-22T07:16:24.500Z,101800.23
2017-12-22T07:17:30.270Z,101796.23
2017-12-22T07:18:36.068Z,101791.38
2017-12-22T07:19:41.806Z,101794.83
2017-12-22T07:20:47.544Z,101799.11
2017-12-22T07:21:53.306Z,101796.03
2017-12-22T07:22:59.060Z,101795.09
2017-12-22T07:24:04.787Z,101790.69
2017-12-22T07:25:10.526Z,101800.63
2017-12-22T07:26:16.282Z,101796.63
2017-12-22T07:27:22.020Z,101803.14
2017-12-22T07:28:27.801Z,101800.94
2017-12-22T07:29:33.525Z,101798.25
2017-12-22T07:30:39.292Z,101798.67
2017-12-22T07:31:45.803Z,101799.53
2017-12-22T07:32:51.533Z,101794.30
2017-12-22T07:33:57.296Z,101796.86
2017-12-22T07:35:03.047Z,101796.41
2017-12-22T07:36:08.790Z,101798.56
2017-12-22T07:37:14.528Z,101804.61
2017-12-22T07:38:20.268Z,101799.80
2017-12-22T07:39:26.084Z,101801.94
2017-12-22T07:40:31.838Z,101804.05
2017-12-22T07:41:37.606Z,101802.28
2017-12-22T07:42:43.348Z,101801.86
2017-12-22T07:43:49.872Z,101800.89
2017-12-22T07:44:55.667Z,101794.78
2017-12-22T07:46:02.258Z,101799.53
2017-12-22T07:47:08.041Z,101797.70
2017-12-22T07:48:13.790Z,101797.20
2017-12-22T07:49:19.562Z,101796.28
2017-12-22T07:50:26.144Z,101797.53
2017-12-22T07:51:31.869Z,101801.02
2017-12-22T07:52:38.367Z,101795.33
2017-12-22T07:53:44.097Z,101797.06
2017-12-22T07:54:49.861Z,101795.30
2017-12-22T07:55:55.654Z,101800.51
2017-12-22T07:57:01.412Z,101800.86
2017-12-22T07:58:07.161Z,101798.67
2017-12-22T07:59:12.896Z,101796.47
2017-12-22T08:00:18.635Z,101803.37
2017-12-22T08:01:24.398Z,101805.09
2017-12-22T08:02:30.138Z,101801.53
2017-12-22T08:03:35.882Z,101797.25
2017-12-22T08:04:41.626Z,101802.05
2017-12-22T08:05:47.374Z,101804.67
2017-12-22T08:06:53.143Z,101806.07
2017-12-22T08:07:58.917Z,101803.03
2017-12-22T08:09:04.104Z,101809.56
2017-12-22T08:10:09.868Z,101805.56
2017-12-22T08:11:16.381Z,101810.75
2017-12-22T08:12:22.177Z,101804.16
2017-12-22T08:13:28.700Z,101810.69
2017-12-22T08:14:34.283Z,101807.98
2017-12-22T08:15:40.024Z,101808.84
2017-12-22T08:16:45.792Z,101812.30
2017-12-22T08:17:51.560Z,101814.91
2017-12-22T08:18:57.321Z,101815.28
2017-12-22T08:20:03.092Z,101808.72
2017-12-22T08:21:08.856Z,101813.51
2017-12-22T08:22:14.600Z,101813.03
2017-12-22T08:23:20.580Z,101814.69
2017-12-22T08:24:26.314Z,101817.66
2017-12-22T08:25:32.110Z,101817.64
2017-12-22T08:26:37.892Z,101818.92
2017-12-22T08:27:43.648Z,101826.77
2017-12-22T08:28:50.203Z,101824.09
2017-12-22T08:29:55.952Z,101823.64
2017-12-22T08:31:03.203Z,101824.52
2017-12-22T08:32:08.935Z,101832.38
2017-12-22T08:33:14.682Z,101830.65
2017-12-22T08:34:20.456Z,101834.63
2017-12-22T08:35:26.184Z,101832.91
2017-12-22T08:36:31.927Z,101837.71
2017-12-22T08:37:37.903Z,101843.84
2017-12-22T08:38:44.461Z,101841.23
2017-12-22T08:39:50.228Z,101843.42
2017-12-22T08:40:55.999Z,101846.05
2017-12-22T08:42:01.797Z,101847.41
2017-12-22T08:43:07.572Z,101845.23
2017-12-22T08:44:13.310Z,101847.00
2017-12-22T08:45:19.095Z,101851.78
2017-12-22T08:46:24.851Z,101853.09
2017-12-22T08:47:31.352Z,101853.97
2017-12-22T08:48:37.109Z,101863.55
2017-12-22T08:49:42.863Z,101861.39
2017-12-22T08:50:48.654Z,101864.47
2017-12-22T08:51:54.390Z,101863.66
2017-12-22T08:53:00.577Z,101865.00
2017-12-22T08:54:06.339Z,101863.27
2017-12-22T08:55:12.116Z,101863.27
2017-12-22T08:56:18.659Z,101864.56
2017-12-22T08:57:25.923Z,101867.17
2017-12-22T08:58:32.420Z,101865.80
2017-12-22T08:59:38.191Z,101871.02
2017-12-22T09:00:43.933Z,101865.77
2017-12-22T09:01:49.724Z,101868.84
2017-12-22T09:02:55.455Z,101857.94
2017-12-22T09:04:01.206Z,101862.73
2017-12-22T09:05:07.742Z,101867.08
2017-12-22T09:06:13.484Z,101866.63
2017-12-22T09:07:19.261Z,101864.89
2017-12-22T09:08:25.779Z,101870.59
2017-12-22T09:10:04.763Z,101866.22
2017-12-22T09:11:27.800Z,101864.14
2017-12-22T09:12:38.108Z,101875.84
2017-12-22T09:13:44.651Z,101869.67
2017-12-22T09:14:50.393Z,101867.48
2017-12-22T09:15:56.140Z,101864.92
2017-12-22T09:17:01.880Z,101862.38
2017-12-22T09:18:07.683Z,101868.08
2017-12-22T09:19:13.444Z,101862.38
2017-12-22T09:20:19.201Z,101854.92
2017-12-22T09:21:24.940Z,101853.22
2017-12-22T09:22:30.683Z,101855.77
2017-12-22T09:23:36.468Z,101854.84
2017-12-22T09:24:42.993Z,101856.45
2017-12-22T09:25:48.753Z,101850.27
2017-12-22T09:26:54.519Z,101857.57
2017-12-22T09:28:01.026Z,101857.48
2017-12-22T09:29:07.072Z,101849.62
2017-12-22T09:30:12.902Z,101853.55
2017-12-22T09:31:18.650Z,101859.98
2017-12-22T09:32:24.424Z,101858.61
2017-12-22T09:33:30.940Z,101855.06
2017-12-22T09:34:36.734Z,101846.68
2017-12-22T09:35:42.469Z,101851.84
2017-12-22T09:36:48.231Z,101856.55
2017-12-22T09:37:54.800Z,101848.59
2017-12-22T09:39:01.370Z,101850.75
2017-12-22T09:40:07.130Z,101846.80
2017-12-22T09:41:12.888Z,101851.12
2017-12-22T09:42:18.653Z,101850.54
2017-12-22T09:43:24.403Z,101857.50
2017-12-22T09:44:30.149Z,101851.39
2017-12-22T09:45:35.910Z,101847.86
2017-12-22T09:46:42.436Z,101850.50
2017-12-22T09:47:48.174Z,101850.08
2017-12-22T09:48:53.937Z,101847.48
2017-12-22T09:49:59.756Z,101846.98
2017-12-22T09:51:05.577Z,101845.23
2017-12-22T09:52:12.264Z,101851.72
2017-12-22T09:53:18.009Z,101849.20
2017-12-22T09:54:23.792Z,101850.06
2017-12-22T09:55:29.545Z,101856.09
2017-12-22T09:56:35.309Z,101865.25
2017-12-22T09:57:41.061Z,101861.20
2017-12-22T09:58:46.812Z,101860.70
2017-12-22T09:59:52.548Z,101863.70
2017-12-22T10:00:58.342Z,101863.69
2017-12-22T10:02:04.123Z,101867.17
2017-12-22T10:03:09.856Z,101864.56
2017-12-22T10:04:15.614Z,101857.61
2017-12-22T10:05:21.364Z,101861.20
2017-12-22T10:06:27.097Z,101865.20
2017-12-22T10:07:32.882Z,101866.53
2017-12-22T10:08:38.641Z,101869.58
2017-12-22T10:09:44.391Z,101870.36
2017-12-22T10:10:50.159Z,101877.31
2017-12-22T10:11:57.768Z,101872.91
2017-12-22T10:13:03.565Z,101875.08
2017-12-22T10:14:09.339Z,101875.52
2017-12-22T10:15:15.078Z,101861.52
2017-12-22T10:16:20.827Z,101866.73
2017-12-22T10:17:26.574Z,101863.73
2017-12-22T10:18:32.336Z,101863.33
2017-12-22T10:19:38.075Z,101859.48
2017-12-22T10:20:43.832Z,101857.25
2017-12-22T10:21:50.162Z,101858.53
2017-12-22T10:22:55.930Z,101855.10
2017-12-22T10:24:02.487Z,101865.58
2017-12-22T10:25:09.024Z,101862.52
2017-12-22T10:26:14.769Z,101860.75
2017-12-22T10:27:20.543Z,101862.41
2017-12-22T10:28:27.119Z,101861.97
2017-12-22T10:29:32.916Z,101856.66
2017-12-22T10:30:38.652Z,101851.77
2017-12-22T10:31:44.550Z,101851.80
2017-12-22T10:32:50.299Z,101846.50
2017-12-22T10:33:56.068Z,101838.22
2017-12-22T10:35:01.847Z,101832.22
2017-12-22T10:36:08.401Z,101836.13
2017-12-22T10:37:14.264Z,101823.02
2017-12-22T10:38:20.949Z,101825.20
2017-12-22T10:39:26.711Z,101826.09
2017-12-22T10:40:32.480Z,101823.94
2017-12-22T10:41:38.326Z,101827.11
2017-12-22T10:42:44.138Z,101819.48
2017-12-22T10:43:49.899Z,101822.20
2017-12-22T10:44:55.683Z,101826.52
2017-12-22T10:46:01.520Z,101816.79
2017-12-22T10:47:07.452Z,101817.63
2017-12-22T10:48:14.917Z,101826.58
2017-12-22T10:49:21.527Z,101821.34
2017-12-22T10:50:27.441Z,101824.84
2017-12-22T10:51:34.052Z,101826.65
2017-12-22T10:52:39.812Z,101826.71
2017-12-22T10:53:45.580Z,101826.77
2017-12-22T10:54:51.700Z,101828.51
2017-12-22T10:55:57.611Z,101828.91
2017-12-22T10:57:03.484Z,101834.52
2017-12-22T10:58:09.342Z,101827.17
2017-12-22T10:59:15.129Z,101827.26
2017-12-22T11:00:20.882Z,101823.41
2017-12-22T11:01:26.628Z,101824.83
2017-12-22T11:02:32.405Z,101832.33
2017-12-22T11:03:38.620Z,101836.28
2017-12-22T11:04:44.368Z,101836.77
2017-12-22T11:05:50.505Z,101840.39
2017-12-22T11:06:56.537Z,101842.14
2017-12-22T11:08:03.084Z,101840.89
2017-12-22T11:09:09.859Z,101846.80
2017-12-22T11:10:15.597Z,101848.56
2017-12-22T11:11:22.165Z,101854.27
2017-12-22T11:12:28.749Z,101848.62
2017-12-22T11:13:34.579Z,101852.11
2017-12-22T11:14:40.348Z,101851.32
2017-12-22T11:15:46.230Z,101856.60
2017-12-22T11:16:51.962Z,101868.38
2017-12-22T11:17:58.161Z,101869.66
2017-12-22T11:19:04.038Z,101875.38
2017-12-22T11:20:10.756Z,101874.13
2017-12-22T11:21:17.315Z,101869.38
2017-12-22T11:22:24.117Z,101864.66
2017-12-22T11:23:29.872Z,101871.67
2017-12-22T11:24:35.941Z,101873.39
2017-12-22T11:25:41.709Z,101872.61
2017-12-22T11:26:48.230Z,101879.52
2017-12-22T11:27:54.073Z,101884.31
2017-12-22T11:29:00.247Z,101872.99
2017-12-22T11:30:07.054Z,101870.01
2017-12-22T11:31:13.414Z,101864.78
2017-12-22T11:32:19.431Z,101859.45
2017-12-22T11:33:25.244Z,101859.88
2017-12-22T11:34:31.143Z,101862.48
2017-12-22T11:35:36.908Z,101868.50
2017-12-22T11:36:42.653Z,101862.78
2017-12-22T11:37:48.419Z,101868.82
2017-12-22T11:38:54.555Z,101860.94
2017-12-22T11:40:00.397Z,101857.84
2017-12-22T11:41:06.291Z,101862.94
2017-12-22T11:42:12.808Z,101863.77
2017-12-22T11:43:18.586Z,101855.08
2017-12-22T11:44:25.103Z,101856.45
2017-12-22T11:45:30.884Z,101857.02
2017-12-22T11:46:36.701Z,101848.73
2017-12-22T11:47:42.451Z,101852.20
2017-12-22T11:48:48.224Z,101851.70
2017-12-22T11:49:53.961Z,101850.81
2017-12-22T11:51:00.488Z,101851.31
2017-12-22T11:52:06.331Z,101848.62
2017-12-22T11:53:12.322Z,101849.56
2017-12-22T11:54:18.077Z,101853.42
2017-12-22T11:55:23.832Z,101852.95
2017-12-22T11:56:29.650Z,101850.34
2017-12-22T11:57:35.439Z,101855.29
2017-12-22T11:58:42.170Z,101855.80
2017-12-22T11:59:47.925Z,101860.70
2017-12-22T12:00:53.666Z,101856.84
2017-12-22T12:01:59.459Z,101852.12
2017-12-22T12:03:06.126Z,101851.35
2017-12-22T12:04:11.972Z,101858.42
2017-12-22T12:05:18.044Z,101853.98
2017-12-22T12:06:23.808Z,101860.18
2017-12-22T12:07:29.562Z,101859.80
2017-12-22T12:08:35.321Z,101856.36
2017-12-22T12:09:42.040Z,101850.73
2017-12-22T12:10:47.813Z,101856.41
2017-12-22T12:11:53.568Z,101849.88
2017-12-22T12:12:59.758Z,101853.36
2017-12-22T12:14:05.624Z,101858.59
2017-12-22T12:15:11.068Z,101852.48
2017-12-22T12:16:16.674Z,101848.09
2017-12-22T12:17:22.420Z,101847.23
2017-12-22T12:18:28.174Z,101849.84
2017-12-22T12:19:33.995Z,101854.20
2017-12-22T12:20:40.486Z,101849.42
2017-12-22T12:21:46.244Z,101863.83
2017-12-22T12:22:52.044Z,101866.44
2017-12-22T12:23:57.865Z,101862.53
2017-12-22T12:25:04.405Z,101860.41
2017-12-22T12:26:10.190Z,101860.77
2017-12-22T12:27:15.954Z,101867.30
2017-12-22T12:28:21.771Z,101868.63
2017-12-22T12:29:27.526Z,101875.61
2017-12-22T12:30:33.341Z,101873.87
2017-12-22T12:31:39.890Z,101859.58
2017-12-22T12:32:45.647Z,101857.84